Terminal Aerodrome Forecast
Issued by NWS

Home | Current Version | Previous Version | Text Only | Print | Product List | Glossary Off
Versions: 1 2 3 4 5 6 7 8 9 10 11 12 13 14 15

828
FTUS43 KICT 211018 AAA
TAFSLN
TAF AMD
KSLN 211018Z 2110/2206 13007KT P6SM BKN040
     FM211400 13009KT P6SM OVC025
     FM211700 14013KT P6SM OVC022
     FM212300 13013KT P6SM OVC035=

USA.gov is the U.S. government's official web portal to all federal, state and local government web resources and services.